Time;durP1;ratioP1;P1;durP2;ratioP2;P2;SDS_P1;SDS_P2;PMS_P1;PMS_P2;Temp;Humidity;BMP_temperature;BMP_pressure;BME280_temperature;BME280_humidity;BME280_pressure;Samples;Min_cycle;Max_cycle;Signal;HPM_P1;HPM_P2
2023/07/20 00:02:05;;;;;;;;;;;;;;;30.69;37.92;100035.87;103376;1288;60514;-82
2023/07/20 00:04:31;;;;;;;;;;;;;;;30.69;37.82;100035.15;102886;1288;60948;-83
2023/07/20 00:06:56;;;;;;;;;;;;;;;30.68;38.04;100034.86;103135;1291;60799;-82
2023/07/20 00:09:22;;;;;;;;;;;;;;;30.68;37.94;100036.37;102888;1290;60692;-82
2023/07/20 00:11:48;;;;;;;;;;;;;;;30.69;38.15;100041.69;102872;1294;60566;-82
2023/07/20 00:14:13;;;;;;;;;;;;;;;30.68;38.03;100051.23;102858;1289;65040;-82
2023/07/20 00:16:39;;;;;;;;;;;;;;;30.68;38.02;100064.32;102937;1292;61639;-82
2023/07/20 00:19:06;;;;;;;;;;;;;;;30.68;38.12;100070.98;103222;1294;60695;-83
2023/07/20 00:21:33;;;;;;;;;;;;;;;30.68;38.18;100078.27;103404;1292;60577;-83
2023/07/20 00:23:59;;;;;;;;;;;;;;;30.68;38.07;100086.45;102841;1294;60556;-83
2023/07/20 00:26:24;;;;;;;;;;;;;;;30.68;38.05;100087.91;103149;1293;61751;-83
2023/07/20 00:28:50;;;;;;;;;;;;;;;30.68;38.12;100092.61;103382;1293;60488;-83
2023/07/20 00:31:16;;;;;;;;;;;;;;;30.68;38.18;100096.09;103009;1289;60635;-83
2023/07/20 00:33:41;;;;;;;;;;;;;;;30.68;38.15;100105.73;102889;1294;60626;-83
2023/07/20 00:36:06;;;;;;;;;;;;;;;30.68;38.16;100111.47;102851;1291;60619;-83
2023/07/20 00:38:32;;;;;;;;;;;;;;;30.68;38.18;100116.45;102852;1291;60751;-83
2023/07/20 00:40:57;;;;;;;;;;;;;;;30.68;38.19;100126.27;103245;1292;60601;-83
2023/07/20 00:43:23;;;;;;;;;;;;;;;30.68;38.14;100125.17;102856;1291;60588;-83
2023/07/20 00:45:48;;;;;;;;;;;;;;;30.68;38.28;100124.24;102775;1289;63742;-83
2023/07/20 00:48:13;;;;;;;;;;;;;;;30.68;38.04;100122.73;102781;1294;60970;-83
2023/07/20 00:50:39;;;;;;;;;;;;;;;30.68;38.22;100114.06;103329;1291;60596;-83
2023/07/20 00:53:05;;;;;;;;;;;;;;;30.68;38.12;100116.79;102761;1295;60593;-83
2023/07/20 00:55:30;;;;;;;;;;;;;;;30.68;38.17;100111.67;102818;1291;61948;-83
2023/07/20 00:57:55;;;;;;;;;;;;;;;30.68;38.26;100105.73;102836;1291;70565;-83
2023/07/20 01:00:22;;;;;;;;;;;;;;;30.68;38.33;100106.44;102943;1293;61152;-83
2023/07/20 01:02:47;;;;;;;;;;;;;;;30.68;38.27;100098.67;102959;1292;60599;-83
2023/07/20 01:05:16;;;;;;;;;;;;;;;30.67;38.27;100096.74;103143;1290;61763;-83
2023/07/20 01:07:43;;;;;;;;;;;;;;;30.67;38.38;100089.70;103040;1293;60558;-83
2023/07/20 01:10:12;;;;;;;;;;;;;;;30.67;38.35;100086.39;103109;1289;66091;-83
2023/07/20 01:12:41;;;;;;;;;;;;;;;30.67;38.32;100079.30;102968;1290;60712;-83
2023/07/20 01:15:07;;;;;;;;;;;;;;;30.67;38.34;100083.33;103234;1292;60562;-83
2023/07/20 01:17:33;;;;;;;;;;;;;;;30.67;38.38;100075.70;103095;1289;63829;-83
2023/07/20 01:19:59;;;;;;;;;;;;;;;30.67;38.31;100080.48;103188;1294;61178;-83
2023/07/20 01:22:33;;;;;;;;;;;;;;;30.67;38.32;100081.86;103174;1294;60597;-82
2023/07/20 01:25:25;;;;;;;;;;;;;;;30.67;38.39;100082.06;103058;1292;60466;-83
2023/07/20 01:28:10;;;;;;;;;;;;;;;30.67;38.33;100083.70;103241;1298;64988;-83
2023/07/20 01:30:48;;;;;;;;;;;;;;;30.67;38.30;100077.71;102737;1299;64981;-83
2023/07/20 01:33:14;;;;;;;;;;;;;;;30.67;38.34;100082.06;102687;1294;60624;-83
2023/07/20 01:35:39;;;;;;;;;;;;;;;30.67;38.34;100089.86;102667;1300;60707;-83
2023/07/20 01:38:05;;;;;;;;;;;;;;;30.67;38.44;100088.23;103246;1300;60666;-83
2023/07/20 01:40:30;;;;;;;;;;;;;;;30.67;38.46;100083.83;102551;1301;60606;-83
2023/07/20 01:42:56;;;;;;;;;;;;;;;30.67;38.46;100081.66;102625;1299;61876;-83
2023/07/20 01:45:21;;;;;;;;;;;;;;;30.67;38.37;100080.05;102648;1300;60610;-83
2023/07/20 01:47:46;;;;;;;;;;;;;;;30.67;38.42;100075.86;102583;1300;60879;-83
2023/07/20 01:50:12;;;;;;;;;;;;;;;30.66;38.42;100074.14;102684;1297;61285;-83
2023/07/20 01:52:37;;;;;;;;;;;;;;;30.66;38.38;100069.98;102710;1298;60739;-83
2023/07/20 01:55:04;;;;;;;;;;;;;;;30.66;38.43;100064.88;102664;1300;60722;-83
2023/07/20 01:57:29;;;;;;;;;;;;;;;30.66;38.39;100069.61;102890;1300;61789;-83
2023/07/20 01:59:55;;;;;;;;;;;;;;;30.66;38.50;100076.02;102630;1301;60569;-83
2023/07/20 02:02:20;;;;;;;;;;;;;;;30.66;38.38;100073.50;102724;1299;61959;-83
2023/07/20 02:04:46;;;;;;;;;;;;;;;30.66;38.52;100067.30;102642;1295;60589;-83
2023/07/20 02:07:13;;;;;;;;;;;;;;;30.65;38.42;100057.20;103319;1296;60589;-83
2023/07/20 02:09:38;;;;;;;;;;;;;;;30.65;38.48;100040.18;102869;1293;60596;-83
2023/07/20 02:12:04;;;;;;;;;;;;;;;30.65;38.56;100026.23;102859;1294;60589;-83
2023/07/20 02:14:29;;;;;;;;;;;;;;;30.65;38.55;100016.25;102866;1294;60883;-83
2023/07/20 02:16:57;;;;;;;;;;;;;;;30.65;38.46;100018.80;102945;1289;60584;-83
2023/07/20 02:19:24;;;;;;;;;;;;;;;30.65;38.56;100009.92;102867;1296;60592;-83
2023/07/20 02:21:50;;;;;;;;;;;;;;;30.64;38.48;100011.77;102827;1294;60502;-83
2023/07/20 02:24:15;;;;;;;;;;;;;;;30.64;38.50;100015.75;102923;1295;61261;-82
2023/07/20 02:26:41;;;;;;;;;;;;;;;30.64;38.60;100013.44;102999;1289;60694;-83
2023/07/20 02:29:07;;;;;;;;;;;;;;;30.64;38.54;100013.82;102758;1290;60981;-83
2023/07/20 02:31:33;;;;;;;;;;;;;;;30.64;38.68;100010.35;102888;1295;60642;-83
2023/07/20 02:33:59;;;;;;;;;;;;;;;30.63;38.66;100007.56;103139;1294;61039;-83
2023/07/20 02:36:24;;;;;;;;;;;;;;;30.64;38.76;100005.48;103252;1295;60570;-83
2023/07/20 02:38:50;;;;;;;;;;;;;;;30.64;38.61;100000.02;102963;1304;60636;-82
2023/07/20 02:41:16;;;;;;;;;;;;;;;30.64;38.70;99997.60;102883;1294;60613;-82
2023/07/20 02:43:42;;;;;;;;;;;;;;;30.64;38.71;99988.79;103082;1304;60596;-82
2023/07/20 02:46:07;;;;;;;;;;;;;;;30.64;38.79;99984.44;103238;1297;61255;-82
2023/07/20 02:48:34;;;;;;;;;;;;;;;30.64;38.75;99985.16;102763;1290;60594;-82
2023/07/20 02:51:00;;;;;;;;;;;;;;;30.64;38.60;100002.80;102837;1293;61809;-82
2023/07/20 02:53:26;;;;;;;;;;;;;;;30.63;38.73;100021.14;102880;1294;61156;-82
2023/07/20 02:55:51;;;;;;;;;;;;;;;30.63;38.62;100022.61;102908;1290;60571;-82
2023/07/20 02:58:17;;;;;;;;;;;;;;;30.63;38.73;100019.88;103048;1293;60485;-82
2023/07/20 03:00:43;;;;;;;;;;;;;;;30.63;38.79;100019.35;102818;1294;61103;-82
2023/07/20 03:03:09;;;;;;;;;;;;;;;30.63;38.77;100019.25;102816;1294;60640;-82
2023/07/20 03:05:37;;;;;;;;;;;;;;;30.63;38.81;100030.31;103320;1293;60929;-83
2023/07/20 03:08:06;;;;;;;;;;;;;;;30.63;38.80;100039.53;102746;1291;60588;-83
2023/07/20 03:10:32;;;;;;;;;;;;;;;30.63;38.98;100047.16;102828;1300;65098;-83
2023/07/20 03:12:57;;;;;;;;;;;;;;;30.63;38.87;100051.52;103491;1290;60973;-82
2023/07/20 03:15:22;;;;;;;;;;;;;;;30.63;38.78;100062.20;102848;1290;60627;-82
2023/07/20 03:17:48;;;;;;;;;;;;;;;30.63;38.98;100085.84;102792;1296;60652;-82
2023/07/20 03:20:13;;;;;;;;;;;;;;;30.63;38.86;100114.34;102890;1289;60533;-82
2023/07/20 03:22:39;;;;;;;;;;;;;;;30.63;38.85;100107.96;102830;1289;64924;-82
2023/07/20 03:25:04;;;;;;;;;;;;;;;30.63;38.91;100115.79;103475;1291;61740;-82
2023/07/20 03:27:31;;;;;;;;;;;;;;;30.63;38.95;100114.34;102773;1291;60601;-82
2023/07/20 03:29:56;;;;;;;;;;;;;;;30.63;38.95;100116.71;102811;1290;61629;-82
2023/07/20 03:32:22;;;;;;;;;;;;;;;30.63;39.03;100118.70;102833;1291;60608;-82
2023/07/20 03:34:48;;;;;;;;;;;;;;;30.63;38.93;100113.59;103123;1289;60590;-82
2023/07/20 03:37:13;;;;;;;;;;;;;;;30.63;39.08;100120.29;103106;1295;61017;-82
2023/07/20 03:39:39;;;;;;;;;;;;;;;30.63;39.14;100122.46;102853;1293;60520;-82
2023/07/20 03:42:04;;;;;;;;;;;;;;;30.63;39.10;100124.13;102798;1291;61738;-82
2023/07/20 03:44:30;;;;;;;;;;;;;;;30.63;39.12;100116.14;103466;1294;60622;-82
2023/07/20 03:46:55;;;;;;;;;;;;;;;30.64;39.09;100105.17;102814;1290;61065;-82
2023/07/20 03:49:21;;;;;;;;;;;;;;;30.63;39.20;100119.20;102838;1291;60683;-82
2023/07/20 03:51:46;;;;;;;;;;;;;;;30.64;39.10;100112.45;102826;1291;60934;-82
2023/07/20 03:54:12;;;;;;;;;;;;;;;30.64;39.20;100106.27;103448;1290;60948;-82
2023/07/20 03:56:37;;;;;;;;;;;;;;;30.64;39.08;100105.77;102812;1295;61233;-82
2023/07/20 03:59:03;;;;;;;;;;;;;;;30.64;39.15;100103.41;102858;1294;60592;-82
2023/07/20 04:01:28;;;;;;;;;;;;;;;30.63;39.21;100091.79;102839;1290;60557;-82
2023/07/20 04:03:54;;;;;;;;;;;;;;;30.63;39.25;100087.10;102997;1293;60600;-82
2023/07/20 04:06:19;;;;;;;;;;;;;;;30.62;39.27;100096.96;102814;1291;61763;-83
2023/07/20 04:08:47;;;;;;;;;;;;;;;30.63;39.08;100099.53;102806;1291;60598;-83
2023/07/20 04:11:13;;;;;;;;;;;;;;;30.62;39.15;100090.48;102824;1289;61756;-83
2023/07/20 04:13:38;;;;;;;;;;;;;;;30.62;39.17;100085.77;103422;1289;60840;-83
2023/07/20 04:16:04;;;;;;;;;;;;;;;30.61;39.22;100090.56;102951;1290;60585;-83
2023/07/20 04:18:29;;;;;;;;;;;;;;;30.61;39.29;100091.86;102843;1290;61143;-83
2023/07/20 04:20:55;;;;;;;;;;;;;;;30.61;39.26;100092.94;102837;1293;60588;-83
2023/07/20 04:23:20;;;;;;;;;;;;;;;30.61;39.26;100106.27;102908;1290;61924;-83
2023/07/20 04:25:46;;;;;;;;;;;;;;;30.61;39.36;100109.83;103891;1295;60476;-83
2023/07/20 04:28:11;;;;;;;;;;;;;;;30.61;39.16;100110.58;102798;1290;61839;-83
2023/07/20 04:30:37;;;;;;;;;;;;;;;30.61;39.35;100111.11;102879;1294;60524;-83
2023/07/20 04:33:05;;;;;;;;;;;;;;;30.61;39.36;100109.52;102877;1290;61067;-82
2023/07/20 04:35:50;;;;;;;;;;;;;;;30.61;39.32;100112.46;103621;1288;60534;-83
2023/07/20 04:38:17;;;;;;;;;;;;;;;30.60;39.26;100115.21;102915;1291;60572;-83
2023/07/20 04:40:46;;;;;;;;;;;;;;;30.59;39.43;100115.88;103105;1292;64760;-82
2023/07/20 04:43:11;;;;;;;;;;;;;;;30.58;39.39;100112.35;102982;1293;64868;-82
2023/07/20 04:45:37;;;;;;;;;;;;;;;30.57;39.27;100106.48;102965;1290;60682;-82
2023/07/20 04:48:02;;;;;;;;;;;;;;;30.56;39.45;100100.97;103113;1289;61055;-81
2023/07/20 04:50:28;;;;;;;;;;;;;;;30.55;39.42;100100.02;102808;1289;60529;-82
2023/07/20 04:52:54;;;;;;;;;;;;;;;30.54;39.42;100098.89;102932;1289;61657;-82
2023/07/20 04:55:20;;;;;;;;;;;;;;;30.54;39.45;100097.08;102899;1289;60587;-82
2023/07/20 04:57:46;;;;;;;;;;;;;;;30.54;39.55;100098.16;102846;1289;60592;-82
2023/07/20 05:00:13;;;;;;;;;;;;;;;30.54;39.57;100102.77;102864;1289;60589;-82
2023/07/20 05:02:38;;;;;;;;;;;;;;;30.53;39.48;100099.95;102933;1294;61792;-82
2023/07/20 05:05:05;;;;;;;;;;;;;;;30.52;39.53;100097.14;102717;1295;60521;-82
2023/07/20 05:07:31;;;;;;;;;;;;;;;30.51;39.51;100100.14;102947;1292;60689;-82
2023/07/20 05:09:57;;;;;;;;;;;;;;;30.50;39.61;100105.34;102954;1291;60536;-82
2023/07/20 05:12:23;;;;;;;;;;;;;;;30.50;39.62;100108.60;103210;1295;61190;-82
2023/07/20 05:14:48;;;;;;;;;;;;;;;30.51;39.61;100107.67;102990;1292;60696;-82
2023/07/20 05:17:14;;;;;;;;;;;;;;;30.51;39.69;100109.85;102978;1290;60665;-82
2023/07/20 05:19:39;;;;;;;;;;;;;;;30.50;39.66;100111.02;102963;1290;60916;-82
2023/07/20 05:22:06;;;;;;;;;;;;;;;30.48;39.53;100113.56;103158;1290;61180;-82
2023/07/20 05:24:31;;;;;;;;;;;;;;;30.47;39.50;100111.15;103124;1291;60555;-82
2023/07/20 05:26:58;;;;;;;;;;;;;;;30.47;39.72;100100.60;102931;1294;60585;-82
2023/07/20 05:29:23;;;;;;;;;;;;;;;30.48;39.71;100099.14;103114;1290;60469;-82
2023/07/20 05:31:49;;;;;;;;;;;;;;;30.48;39.71;100097.34;103076;1292;60650;-82
2023/07/20 05:34:16;;;;;;;;;;;;;;;30.49;39.73;100094.99;102970;1294;66130;-83
2023/07/20 05:36:41;;;;;;;;;;;;;;;30.49;39.67;100091.02;103307;1294;64817;-82
2023/07/20 05:39:06;;;;;;;;;;;;;;;30.50;39.80;100091.77;103220;1292;60590;-82
2023/07/20 05:41:32;;;;;;;;;;;;;;;30.51;39.92;100094.56;103538;1288;61837;-82
2023/07/20 05:43:58;;;;;;;;;;;;;;;30.51;39.82;100097.05;103172;1288;60595;-82
2023/07/20 05:46:24;;;;;;;;;;;;;;;30.49;39.86;100103.16;103010;1288;61252;-82
2023/07/20 05:48:49;;;;;;;;;;;;;;;30.46;39.91;100103.13;103311;1290;63678;-82
2023/07/20 05:51:15;;;;;;;;;;;;;;;30.45;39.98;100100.37;103148;1295;60592;-82
2023/07/20 05:53:41;;;;;;;;;;;;;;;30.43;39.99;100088.44;102913;1288;61620;-82
2023/07/20 05:56:10;;;;;;;;;;;;;;;30.43;40.05;100086.19;102914;1290;60597;-82
2023/07/20 05:58:35;;;;;;;;;;;;;;;30.44;39.97;100091.59;103067;1294;60496;-83
2023/07/20 06:01:02;;;;;;;;;;;;;;;30.40;39.96;100098.71;103321;1288;61812;-82
2023/07/20 06:03:28;;;;;;;;;;;;;;;30.37;40.07;100107.38;103069;1288;60938;-83
2023/07/20 06:05:58;;;;;;;;;;;;;;;30.33;40.05;100100.88;103072;1288;60555;-82
2023/07/20 06:08:23;;;;;;;;;;;;;;;30.30;40.18;100089.79;103105;1292;64758;-82
2023/07/20 06:10:52;;;;;;;;;;;;;;;30.30;40.12;100091.64;103004;1288;60613;-82
2023/07/20 06:13:17;;;;;;;;;;;;;;;30.28;40.15;100096.44;103145;1289;61783;-82
2023/07/20 06:15:43;;;;;;;;;;;;;;;30.25;40.10;100097.53;103281;1289;60623;-82
2023/07/20 06:18:09;;;;;;;;;;;;;;;30.21;40.24;100099.27;103048;1293;61231;-83
2023/07/20 06:20:34;;;;;;;;;;;;;;;30.18;40.34;100104.20;103209;1288;60575;-82
2023/07/20 06:23:00;;;;;;;;;;;;;;;30.17;40.30;100109.86;103045;1289;60763;-82
2023/07/20 06:25:25;;;;;;;;;;;;;;;30.18;40.35;100116.28;102997;1290;60967;-82
2023/07/20 06:27:52;;;;;;;;;;;;;;;30.16;40.42;100118.52;103086;1288;60543;-82
2023/07/20 06:30:18;;;;;;;;;;;;;;;30.17;40.32;100123.71;102959;1294;60586;-82
2023/07/20 06:32:43;;;;;;;;;;;;;;;30.17;40.34;100121.33;103207;1291;60496;-82
2023/07/20 06:35:09;;;;;;;;;;;;;;;30.17;40.26;100123.85;103233;1288;61109;-82
2023/07/20 06:37:35;;;;;;;;;;;;;;;30.18;40.37;100117.88;103434;1288;60487;-82
2023/07/20 06:40:00;;;;;;;;;;;;;;;30.19;40.37;100124.04;103272;1291;60636;-82
2023/07/20 06:42:25;;;;;;;;;;;;;;;30.18;40.48;100122.52;102932;1288;63952;-82
2023/07/20 06:44:51;;;;;;;;;;;;;;;30.19;40.48;100118.76;103504;1288;60597;-82
2023/07/20 06:47:16;;;;;;;;;;;;;;;30.20;40.37;100121.58;103211;1292;61655;-82
2023/07/20 06:49:42;;;;;;;;;;;;;;;30.21;40.47;100131.53;103207;1288;61048;-82
2023/07/20 06:52:07;;;;;;;;;;;;;;;30.22;40.39;100132.27;103285;1288;61619;-82
2023/07/20 06:54:33;;;;;;;;;;;;;;;30.24;40.43;100124.08;103376;1291;61532;-83
2023/07/20 06:56:59;;;;;;;;;;;;;;;30.25;40.36;100123.59;103642;1292;64779;-83
2023/07/20 06:59:25;;;;;;;;;;;;;;;30.26;40.37;100120.55;103262;1288;60909;-82
2023/07/20 07:01:51;;;;;;;;;;;;;;;30.26;40.31;100123.81;103143;1293;60658;-82
2023/07/20 07:04:17;;;;;;;;;;;;;;;30.25;40.41;100124.85;102993;1292;61710;-83
2023/07/20 07:06:43;;;;;;;;;;;;;;;30.27;40.30;100135.59;103328;1290;61803;-85
2023/07/20 07:09:08;;;;;;;;;;;;;;;30.28;40.40;100135.95;103077;1291;60594;-84
2023/07/20 07:11:34;;;;;;;;;;;;;;;30.31;40.46;100137.86;102850;1288;608235;-83
2023/07/20 07:13:59;;;;;;;;;;;;;;;30.32;40.36;100148.19;103231;1288;60512;-83
2023/07/20 07:16:25;;;;;;;;;;;;;;;30.32;40.40;100152.88;103178;1288;61161;-82
2023/07/20 07:18:50;;;;;;;;;;;;;;;30.32;40.41;100145.64;103112;1290;60647;-82
2023/07/20 07:21:15;;;;;;;;;;;;;;;30.32;40.43;100146.35;103366;1288;61813;-82
2023/07/20 07:23:41;;;;;;;;;;;;;;;30.33;40.44;100153.05;103225;1289;60602;-82
2023/07/20 07:26:06;;;;;;;;;;;;;;;30.32;40.49;100150.74;103606;1290;61671;-83
2023/07/20 07:28:32;;;;;;;;;;;;;;;30.33;40.47;100141.54;102936;1288;61148;-83
2023/07/20 07:30:58;;;;;;;;;;;;;;;30.33;40.47;100143.34;102909;1291;61143;-82
2023/07/20 07:33:24;;;;;;;;;;;;;;;30.34;40.53;100146.57;103302;1289;60574;-84
2023/07/20 07:35:52;;;;;;;;;;;;;;;30.34;40.49;100154.15;103308;1292;60588;-83
2023/07/20 07:38:19;;;;;;;;;;;;;;;30.35;40.44;100160.04;103233;1294;60585;-84
2023/07/20 07:40:44;;;;;;;;;;;;;;;30.36;40.38;100164.41;103241;1288;60866;-84
2023/07/20 07:43:10;;;;;;;;;;;;;;;30.35;40.59;100157.86;103296;1293;60598;-84
2023/07/20 07:45:38;;;;;;;;;;;;;;;30.35;40.46;100152.34;103170;1288;60691;-84
2023/07/20 07:48:05;;;;;;;;;;;;;;;30.36;40.37;100151.86;103306;1288;60467;-85
2023/07/20 07:50:30;;;;;;;;;;;;;;;30.38;40.48;100154.05;103093;1294;61367;-85
2023/07/20 07:52:56;;;;;;;;;;;;;;;30.40;40.46;100153.80;103108;1288;60464;-85
2023/07/20 07:55:21;;;;;;;;;;;;;;;30.42;40.38;100148.29;103272;1288;60623;-85
2023/07/20 07:57:47;;;;;;;;;;;;;;;30.43;40.48;100149.41;103561;1288;60689;-85
2023/07/20 08:00:14;;;;;;;;;;;;;;;30.43;40.42;100150.62;103274;1288;60598;-84
2023/07/20 08:02:42;;;;;;;;;;;;;;;30.44;40.36;100148.77;103555;1288;64936;-84
2023/07/20 08:05:08;;;;;;;;;;;;;;;30.45;40.38;100155.48;103028;1289;63990;-85
2023/07/20 08:07:33;;;;;;;;;;;;;;;30.46;40.52;100161.07;103308;1288;62379;-85
2023/07/20 08:10:00;;;;;;;;;;;;;;;30.45;40.33;100155.17;103136;1289;60636;-83
2023/07/20 08:12:26;;;;;;;;;;;;;;;30.43;40.25;100153.35;103257;1289;61068;-82
2023/07/20 08:14:51;;;;;;;;;;;;;;;30.42;40.27;100150.55;103183;1288;60571;-83
2023/07/20 08:17:17;;;;;;;;;;;;;;;30.40;40.14;100146.48;103134;1288;60578;-84
2023/07/20 08:19:44;;;;;;;;;;;;;;;30.38;40.06;100141.95;103061;1288;60588;-84
2023/07/20 08:22:09;;;;;;;;;;;;;;;30.38;40.04;100136.41;103486;1288;60666;-84
2023/07/20 08:24:35;;;;;;;;;;;;;;;30.37;40.05;100134.70;103025;1288;60980;-84
2023/07/20 08:27:00;;;;;;;;;;;;;;;30.37;39.81;100133.98;103022;1290;60903;-84
2023/07/20 08:29:26;;;;;;;;;;;;;;;30.38;39.84;100127.53;103591;1292;60571;-84
2023/07/20 08:31:52;;;;;;;;;;;;;;;30.38;39.83;100125.83;103509;1288;60672;-84
2023/07/20 08:34:17;;;;;;;;;;;;;;;30.39;39.84;100123.95;103296;1288;60907;-84
2023/07/20 08:36:43;;;;;;;;;;;;;;;30.40;39.60;100126.19;103300;1287;60574;-84
2023/07/20 08:39:08;;;;;;;;;;;;;;;30.40;39.65;100127.64;102979;1291;60789;-84
2023/07/20 08:41:34;;;;;;;;;;;;;;;30.41;39.64;100128.25;103301;1293;60579;-84
2023/07/20 08:43:59;;;;;;;;;;;;;;;30.42;39.55;100125.55;103372;1288;60594;-84
2023/07/20 08:46:26;;;;;;;;;;;;;;;30.43;39.53;100118.86;103528;1288;60496;-84
2023/07/20 08:48:52;;;;;;;;;;;;;;;30.46;39.51;100115.84;103418;1288;60592;-84
2023/07/20 08:51:17;;;;;;;;;;;;;;;30.47;39.37;100116.96;103217;1288;60553;-84
2023/07/20 08:53:43;;;;;;;;;;;;;;;30.50;39.47;100115.95;103402;1288;60579;-84
2023/07/20 08:56:10;;;;;;;;;;;;;;;30.51;39.43;100110.11;103354;1288;60483;-84
2023/07/20 08:58:36;;;;;;;;;;;;;;;30.53;39.40;100109.52;103084;1288;60487;-84
2023/07/20 09:01:02;;;;;;;;;;;;;;;30.55;39.26;100110.54;103002;1290;60986;-84
2023/07/20 09:03:28;;;;;;;;;;;;;;;30.56;39.30;100107.17;103026;1293;61041;-83
2023/07/20 09:05:53;;;;;;;;;;;;;;;30.58;39.33;100104.73;103152;1293;60681;-84
2023/07/20 09:08:19;;;;;;;;;;;;;;;30.60;39.28;100100.34;103699;1288;60484;-85
2023/07/20 09:10:44;;;;;;;;;;;;;;;30.62;39.18;100098.18;103724;1290;60589;-84
2023/07/20 09:13:13;;;;;;;;;;;;;;;30.63;39.20;100092.38;103350;1288;60680;-84
2023/07/20 09:15:39;;;;;;;;;;;;;;;30.64;39.22;100086.02;103311;1288;60463;-84
2023/07/20 09:18:04;;;;;;;;;;;;;;;30.67;39.23;100086.04;103595;1288;63483;-84
2023/07/20 09:20:31;;;;;;;;;;;;;;;30.69;39.13;100085.27;103144;1293;60507;-84
2023/07/20 09:22:56;;;;;;;;;;;;;;;30.70;39.17;100085.70;102986;1289;60964;-84
2023/07/20 09:25:22;;;;;;;;;;;;;;;30.71;39.02;100084.13;103142;1288;60589;-84
2023/07/20 09:27:48;;;;;;;;;;;;;;;30.71;39.05;100086.02;103598;1288;61715;-84
2023/07/20 09:30:14;;;;;;;;;;;;;;;30.72;38.99;100089.09;103439;1288;61662;-84
2023/07/20 09:32:41;;;;;;;;;;;;;;;30.71;38.96;100090.97;103306;1288;64784;-84
2023/07/20 09:35:07;;;;;;;;;;;;;;;30.71;38.98;100084.06;102954;1290;64831;-84
2023/07/20 09:37:33;;;;;;;;;;;;;;;30.72;38.91;100082.73;103057;1288;61043;-84
2023/07/20 09:39:58;;;;;;;;;;;;;;;30.72;38.94;100078.33;103373;1288;60484;-84
2023/07/20 09:42:25;;;;;;;;;;;;;;;30.73;38.94;100079.09;103273;1291;60649;-84
2023/07/20 09:44:50;;;;;;;;;;;;;;;30.73;38.81;100073.98;103404;1289;60521;-84
2023/07/20 09:47:21;;;;;;;;;;;;;;;30.74;38.96;100076.59;102977;1291;60670;-84
2023/07/20 09:49:47;;;;;;;;;;;;;;;30.76;38.81;100075.44;102950;1296;60479;-83
2023/07/20 09:52:12;;;;;;;;;;;;;;;30.79;38.51;100078.95;103048;1289;60584;-84
2023/07/20 09:54:41;;;;;;;;;;;;;;;30.79;38.58;100074.20;103365;1289;61846;-83
2023/07/20 09:57:11;;;;;;;;;;;;;;;30.79;38.49;100069.92;103141;1289;60435;-83
2023/07/20 09:59:37;;;;;;;;;;;;;;;30.80;38.35;100070.31;103208;1288;60473;-83
2023/07/20 10:02:05;;;;;;;;;;;;;;;30.82;38.25;100060.38;103431;1291;60588;-83
2023/07/20 10:04:30;;;;;;;;;;;;;;;30.86;38.06;100059.66;102955;1288;65611;-83
2023/07/20 10:06:56;;;;;;;;;;;;;;;30.89;38.03;100050.14;103203;1288;61773;-83
2023/07/20 10:09:22;;;;;;;;;;;;;;;30.92;37.79;100045.55;103033;1288;60608;-83
2023/07/20 10:11:49;;;;;;;;;;;;;;;30.95;37.73;100047.35;103056;1294;60575;-83
2023/07/20 10:14:16;;;;;;;;;;;;;;;30.95;37.71;100042.48;103660;1288;60485;-83
2023/07/20 10:16:48;;;;;;;;;;;;;;;30.95;37.71;100034.52;102934;1288;60626;-84
2023/07/20 10:19:17;;;;;;;;;;;;;;;30.93;37.79;100032.60;103475;1288;60600;-84
2023/07/20 10:21:44;;;;;;;;;;;;;;;30.92;37.83;100028.11;103303;1289;63722;-84
2023/07/20 10:24:11;;;;;;;;;;;;;;;30.91;37.84;100017.66;103384;1289;66889;-83
2023/07/20 10:26:36;;;;;;;;;;;;;;;30.91;37.65;100014.55;103618;1289;60323;-84
2023/07/20 10:29:02;;;;;;;;;;;;;;;30.91;37.78;100009.11;103465;1288;60506;-84
2023/07/20 10:31:28;;;;;;;;;;;;;;;30.92;37.85;100007.39;103151;1288;61909;-84
2023/07/20 10:33:55;;;;;;;;;;;;;;;30.94;37.67;100009.35;103461;1288;60580;-83
2023/07/20 10:36:27;;;;;;;;;;;;;;;30.94;37.77;100001.09;103189;1291;60572;-83
2023/07/20 10:38:57;;;;;;;;;;;;;;;30.95;37.88;100009.02;103194;1289;60469;-84
2023/07/20 10:41:27;;;;;;;;;;;;;;;30.94;37.69;100007.08;103220;1288;63771;-84
2023/07/20 10:43:54;;;;;;;;;;;;;;;30.94;37.66;100004.41;103402;1293;65160;-84
2023/07/20 10:46:33;;;;;;;;;;;;;;;30.96;37.57;99998.91;103010;1288;60431;-84
2023/07/20 10:48:59;;;;;;;;;;;;;;;30.96;37.59;99994.93;103278;1288;60508;-84
2023/07/20 10:51:24;;;;;;;;;;;;;;;30.96;37.57;99992.00;103158;1288;60945;-84
2023/07/20 10:53:50;;;;;;;;;;;;;;;30.96;37.59;99987.64;103106;1288;60569;-84
2023/07/20 10:56:22;;;;;;;;;;;;;;;30.98;37.48;99980.84;103143;1292;61194;-83
2023/07/20 10:58:47;;;;;;;;;;;;;;;31.00;37.43;99972.75;102854;1291;60901;-83
2023/07/20 11:01:15;;;;;;;;;;;;;;;31.02;37.42;99967.46;103603;1288;60531;-84
2023/07/20 11:03:41;;;;;;;;;;;;;;;31.02;37.45;99968.85;103427;1293;65297;-84
2023/07/20 11:06:25;;;;;;;;;;;;;;;31.02;37.32;99964.45;102999;1288;60574;-84
2023/07/20 11:08:57;;;;;;;;;;;;;;;31.03;37.21;99968.03;103182;1288;60651;-82
2023/07/20 11:11:32;;;;;;;;;;;;;;;31.03;37.25;99967.45;103135;1288;63681;-83
2023/07/20 11:13:57;;;;;;;;;;;;;;;31.03;37.07;99965.10;103159;1293;64860;-83
2023/07/20 11:16:35;;;;;;;;;;;;;;;31.03;37.09;99957.50;103357;1288;61647;-83
2023/07/20 11:19:15;;;;;;;;;;;;;;;31.03;37.11;99956.78;103176;1289;60473;-84
2023/07/20 11:21:42;;;;;;;;;;;;;;;31.02;37.11;99958.61;103531;1288;64692;-82
2023/07/20 11:24:09;;;;;;;;;;;;;;;31.03;37.10;99963.84;103292;1291;60482;-82
2023/07/20 11:26:41;;;;;;;;;;;;;;;31.04;37.07;99960.13;103233;1288;61856;-82
2023/07/20 11:29:07;;;;;;;;;;;;;;;31.04;37.06;99957.66;102982;1294;60630;-83
2023/07/20 11:31:35;;;;;;;;;;;;;;;31.06;37.01;99951.70;103267;1289;60894;-83
2023/07/20 11:34:00;;;;;;;;;;;;;;;31.05;36.88;99956.32;103359;1289;65293;-83
2023/07/20 11:36:26;;;;;;;;;;;;;;;31.06;36.89;99953.11;102958;1288;60567;-83
2023/07/20 11:38:51;;;;;;;;;;;;;;;31.07;36.88;99952.23;103408;1288;60530;-84
2023/07/20 11:41:18;;;;;;;;;;;;;;;31.08;36.84;99945.07;103388;1288;60672;-83
2023/07/20 11:43:43;;;;;;;;;;;;;;;31.09;36.75;99941.13;103535;1289;60594;-83
2023/07/20 11:46:08;;;;;;;;;;;;;;;31.09;36.73;99939.11;103681;1288;60561;-83
2023/07/20 11:48:34;;;;;;;;;;;;;;;31.10;36.72;99939.67;103336;1288;60540;-83
2023/07/20 11:50:59;;;;;;;;;;;;;;;31.14;36.65;99938.86;103500;1294;60723;-83
2023/07/20 11:53:25;;;;;;;;;;;;;;;31.17;36.56;99940.69;103510;1290;62538;-82
2023/07/20 11:55:51;;;;;;;;;;;;;;;31.17;36.59;99933.91;103506;1289;61771;-83
2023/07/20 11:58:16;;;;;;;;;;;;;;;31.18;36.55;99937.47;103547;1289;60469;-83
2023/07/20 12:00:42;;;;;;;;;;;;;;;31.18;36.30;99937.56;103329;1289;60571;-83
2023/07/20 12:03:07;;;;;;;;;;;;;;;31.19;36.22;99932.15;103229;1289;60624;-83
2023/07/20 12:05:33;;;;;;;;;;;;;;;31.20;36.19;99931.15;103367;1291;60581;-83
2023/07/20 12:07:59;;;;;;;;;;;;;;;31.20;36.22;99929.55;103322;1287;60562;-83
2023/07/20 12:10:28;;;;;;;;;;;;;;;31.21;36.21;99929.44;103483;1293;61940;-83
2023/07/20 12:12:54;;;;;;;;;;;;;;;31.21;36.06;99922.61;103347;1288;61110;-83
2023/07/20 12:15:23;;;;;;;;;;;;;;;31.22;36.07;99919.00;103374;1288;60578;-83
2023/07/20 12:17:53;;;;;;;;;;;;;;;31.22;36.09;99917.02;103197;1288;63687;-82
2023/07/20 12:20:29;;;;;;;;;;;;;;;31.23;35.96;99913.73;103322;1288;65975;-82
2023/07/20 12:23:01;;;;;;;;;;;;;;;31.24;35.91;99911.23;103476;1288;60655;-82
2023/07/20 12:25:33;;;;;;;;;;;;;;;31.26;35.92;99910.77;103261;1291;60474;-83